createdAt,value
2022-11-07T00:00:28.536Z,11.93
2022-11-07T00:02:59.613Z,12.60
2022-11-07T00:05:30.242Z,12.20
2022-11-07T00:08:00.632Z,12.40
2022-11-07T00:10:30.940Z,12.13
2022-11-07T00:13:01.245Z,11.60
2022-11-07T00:15:31.602Z,12.17
2022-11-07T00:18:02.001Z,12.53
2022-11-07T00:20:33.343Z,12.80
2022-11-07T00:23:03.653Z,12.87
2022-11-07T00:25:34.039Z,12.82
2022-11-07T00:28:04.416Z,12.83
2022-11-07T00:30:34.781Z,13.10
2022-11-07T00:33:05.396Z,11.63
2022-11-07T00:35:35.783Z,12.03
2022-11-07T00:38:06.222Z,12.60
2022-11-07T00:40:36.621Z,12.50
2022-11-07T00:43:07.012Z,12.13
2022-11-07T00:45:37.500Z,12.10
2022-11-07T00:48:07.968Z,12.33
2022-11-07T00:50:38.361Z,11.73
2022-11-07T00:53:08.793Z,12.63
2022-11-07T00:55:39.174Z,11.60
2022-11-07T00:58:13.863Z,11.93
2022-11-07T01:00:42.594Z,11.67
2022-11-07T01:03:30.871Z,11.70
2022-11-07T01:06:03.796Z,11.50
2022-11-07T01:08:34.270Z,11.50
2022-11-07T01:11:07.823Z,11.88
2022-11-07T01:13:38.644Z,10.90
2022-11-07T01:16:12.477Z,11.20
2022-11-07T01:18:43.024Z,11.07
2022-11-07T01:21:16.468Z,11.47
2022-11-07T01:23:45.764Z,11.20
2022-11-07T01:26:17.308Z,11.10
2022-11-07T01:28:47.854Z,10.95
2022-11-07T01:31:19.312Z,10.47
2022-11-07T01:33:49.738Z,10.20
2022-11-07T01:36:20.481Z,10.47
2022-11-07T01:38:51.020Z,10.93
2022-11-07T01:41:25.619Z,10.77
2022-11-07T01:44:10.557Z,9.57
2022-11-07T01:46:47.913Z,10.60
2022-11-07T01:49:21.791Z,10.50
2022-11-07T01:51:57.825Z,10.13
2022-11-07T01:54:31.296Z,9.87
2022-11-07T01:57:04.751Z,9.97
2022-11-07T01:59:35.886Z,10.00
2022-11-07T02:02:06.623Z,10.50
2022-11-07T02:04:38.139Z,10.07
2022-11-07T02:07:24.004Z,10.30
2022-11-07T02:09:55.263Z,10.45
2022-11-07T02:12:27.287Z,9.80
2022-11-07T02:14:58.150Z,9.73
2022-11-07T02:17:28.812Z,9.78
2022-11-07T02:19:59.190Z,9.35
2022-11-07T02:22:41.747Z,9.70
2022-11-07T02:25:15.146Z,10.27
2022-11-07T02:27:48.820Z,9.43
2022-11-07T02:30:27.833Z,9.10
2022-11-07T02:32:58.199Z,9.77
2022-11-07T02:35:37.950Z,9.73
2022-11-07T02:38:31.117Z,9.48
2022-11-07T02:41:04.603Z,9.60
2022-11-07T02:43:38.008Z,9.23
2022-11-07T02:46:10.936Z,8.30
2022-11-07T02:48:50.066Z,8.63
2022-11-07T02:51:20.628Z,9.27
2022-11-07T02:53:51.598Z,9.33
2022-11-07T02:56:23.239Z,9.10
2022-11-07T02:58:53.602Z,8.77
2022-11-07T03:01:25.265Z,9.20
2022-11-07T03:03:55.794Z,8.93
2022-11-07T03:06:27.134Z,8.93
2022-11-07T03:08:57.517Z,8.90
2022-11-07T03:11:27.932Z,9.00
2022-11-07T03:13:58.323Z,8.30
2022-11-07T03:16:28.715Z,8.07
2022-11-07T03:18:59.167Z,8.07
2022-11-07T03:21:29.599Z,8.83
2022-11-07T03:24:00.109Z,8.58
2022-11-07T03:26:30.520Z,8.13
2022-11-07T03:29:00.870Z,8.77
2022-11-07T03:31:31.295Z,8.60
2022-11-07T03:34:01.658Z,8.48
2022-11-07T03:36:32.212Z,8.50
2022-11-07T03:39:02.643Z,8.63
2022-11-07T03:41:33.048Z,8.17
2022-11-07T03:44:03.543Z,9.20
2022-11-07T03:46:34.095Z,8.43
2022-11-07T03:49:04.508Z,7.78
2022-11-07T03:51:34.867Z,7.90
2022-11-07T03:54:05.244Z,8.25
2022-11-07T03:56:35.588Z,8.13
2022-11-07T03:59:05.936Z,8.50
2022-11-07T04:01:36.461Z,8.30
2022-11-07T04:04:06.933Z,8.10
2022-11-07T04:06:37.307Z,8.07
2022-11-07T04:09:08.342Z,7.83
2022-11-07T04:11:56.524Z,8.50
2022-11-07T04:14:44.961Z,7.93
2022-11-07T04:17:21.123Z,8.00
2022-11-07T04:19:55.320Z,8.30
2022-11-07T04:22:26.730Z,8.05
2022-11-07T04:24:57.330Z,8.03
2022-11-07T04:27:42.741Z,8.33
2022-11-07T04:30:29.908Z,8.20
2022-11-07T04:33:02.199Z,8.37
2022-11-07T04:35:34.290Z,7.83
2022-11-07T04:38:04.602Z,8.23
2022-11-07T04:40:35.053Z,8.03
2022-11-07T04:43:07.165Z,7.90
2022-11-07T04:45:39.005Z,7.53
2022-11-07T04:48:11.191Z,8.00
2022-11-07T04:50:42.016Z,8.17
2022-11-07T04:53:15.620Z,7.40
2022-11-07T04:55:46.735Z,7.10
2022-11-07T04:58:17.103Z,7.78
2022-11-07T05:00:47.485Z,7.73
2022-11-07T05:03:18.318Z,7.67
2022-11-07T05:05:48.990Z,7.63
2022-11-07T05:08:19.362Z,7.77
2022-11-07T05:10:49.712Z,7.45
2022-11-07T05:13:20.100Z,7.53
2022-11-07T05:15:51.469Z,7.20
2022-11-07T05:18:23.582Z,7.42
2022-11-07T05:20:53.909Z,6.65
2022-11-07T05:23:25.163Z,7.10
2022-11-07T05:25:56.686Z,6.95
2022-11-07T05:28:37.000Z,6.70
2022-11-07T05:31:03.497Z,7.00
2022-11-07T05:33:34.666Z,6.57
2022-11-07T05:36:16.162Z,6.90
2022-11-07T05:38:49.123Z,6.30
2022-11-07T05:41:21.454Z,6.17
2022-11-07T05:43:51.804Z,7.12
2022-11-07T05:46:22.211Z,7.23
2022-11-07T05:48:55.489Z,7.12
2022-11-07T05:51:24.645Z,6.78
2022-11-07T05:53:54.987Z,6.22
2022-11-07T05:56:25.374Z,6.65
2022-11-07T05:58:55.839Z,6.55
2022-11-07T06:01:26.252Z,6.27
2022-11-07T06:03:57.069Z,6.58
2022-11-07T06:06:27.498Z,6.15
2022-11-07T06:08:58.084Z,6.37
2022-11-07T06:11:28.803Z,6.23
2022-11-07T06:13:59.418Z,8.37
2022-11-07T06:16:29.772Z,6.77
2022-11-07T06:19:00.153Z,6.28
2022-11-07T06:21:31.284Z,6.53
2022-11-07T06:24:01.656Z,5.78
2022-11-07T06:26:32.095Z,6.17
2022-11-07T06:29:02.457Z,6.27
2022-11-07T06:31:32.886Z,6.10
2022-11-07T06:34:03.283Z,5.83
2022-11-07T06:36:33.801Z,6.78
2022-11-07T06:39:04.164Z,5.80
2022-11-07T06:41:34.538Z,5.85
2022-11-07T06:44:05.170Z,5.90
2022-11-07T06:46:35.957Z,5.92
2022-11-07T06:49:06.536Z,8.08
2022-11-07T06:51:36.885Z,6.45
2022-11-07T06:54:07.204Z,5.85
2022-11-07T06:56:37.617Z,5.50
2022-11-07T06:59:07.981Z,5.43
2022-11-07T07:01:38.522Z,5.53
2022-11-07T07:04:11.621Z,5.80
2022-11-07T07:06:42.245Z,5.12
2022-11-07T07:09:13.460Z,5.90
2022-11-07T07:11:45.118Z,5.28
2022-11-07T07:14:15.679Z,5.60
2022-11-07T07:16:46.054Z,5.00
2022-11-07T07:19:16.600Z,5.00
2022-11-07T07:21:46.978Z,5.00
2022-11-07T07:24:17.330Z,5.13
2022-11-07T07:26:47.753Z,5.22
2022-11-07T07:29:18.140Z,5.15
2022-11-07T07:31:48.643Z,4.87
2022-11-07T07:34:19.065Z,5.17
2022-11-07T07:36:49.525Z,5.08
2022-11-07T07:39:19.926Z,5.25
2022-11-07T07:41:50.792Z,5.12
2022-11-07T07:44:21.197Z,5.15
2022-11-07T07:46:51.609Z,5.10
2022-11-07T07:49:22.028Z,5.03
2022-11-07T07:51:52.489Z,5.10
2022-11-07T07:54:22.887Z,4.60
2022-11-07T07:56:53.262Z,4.87
2022-11-07T07:59:23.745Z,4.60
2022-11-07T08:01:57.050Z,5.08
2022-11-07T08:04:26.302Z,4.87
2022-11-07T08:06:56.813Z,4.80
2022-11-07T08:09:28.602Z,4.50
2022-11-07T08:11:59.041Z,5.05
2022-11-07T08:14:29.451Z,4.67
2022-11-07T08:17:00.173Z,4.35
2022-11-07T08:19:30.566Z,4.20
2022-11-07T08:22:00.978Z,4.47
2022-11-07T08:24:31.459Z,4.30
2022-11-07T08:27:01.831Z,3.87
2022-11-07T08:29:32.229Z,3.67
2022-11-07T08:32:02.620Z,3.95
2022-11-07T08:34:32.997Z,3.60
2022-11-07T08:37:03.371Z,3.75
2022-11-07T08:39:33.880Z,3.73
2022-11-07T08:42:04.240Z,3.40
2022-11-07T08:44:36.630Z,3.27
2022-11-07T08:47:08.735Z,3.42
2022-11-07T08:49:41.087Z,3.15
2022-11-07T08:52:11.542Z,3.40
2022-11-07T08:54:41.992Z,3.58
2022-11-07T08:57:12.526Z,3.62
2022-11-07T08:59:42.949Z,3.30
2022-11-07T09:04:45.999Z,2.92
2022-11-07T09:07:16.486Z,3.00
2022-11-07T09:09:46.929Z,2.72
2022-11-07T09:12:17.310Z,2.83
2022-11-07T09:14:49.298Z,2.90
2022-11-07T09:17:19.636Z,3.35
2022-11-07T09:19:49.988Z,2.80
2022-11-07T09:22:20.382Z,2.72
2022-11-07T09:24:50.768Z,2.70
2022-11-07T09:27:21.132Z,2.85
2022-11-07T09:29:51.695Z,2.50
2022-11-07T09:32:43.388Z,2.67
2022-11-07T09:34:59.297Z,2.75
2022-11-07T09:37:26.494Z,2.70
2022-11-07T09:39:57.020Z,2.80
2022-11-07T09:42:33.252Z,2.52
2022-11-07T09:45:03.998Z,2.92
2022-11-07T09:47:40.503Z,2.98
2022-11-07T09:50:14.032Z,2.45
2022-11-07T09:52:53.154Z,2.60
2022-11-07T09:55:41.663Z,2.35
2022-11-07T09:58:17.871Z,2.40
2022-11-07T10:00:48.231Z,2.20
2022-11-07T10:03:19.035Z,2.27
2022-11-07T10:06:01.690Z,2.25
2022-11-07T10:08:52.733Z,2.47
2022-11-07T10:11:50.318Z,2.62
2022-11-07T10:14:38.808Z,2.22
2022-11-07T10:17:34.727Z,2.35
2022-11-07T10:20:10.853Z,2.37
2022-11-07T10:23:05.319Z,2.37
2022-11-07T10:25:41.511Z,2.60
2022-11-07T10:28:17.990Z,2.40
2022-11-07T10:30:53.542Z,2.40
2022-11-07T10:33:49.008Z,2.75
2022-11-07T10:36:28.366Z,2.72
2022-11-07T10:39:00.963Z,2.35
2022-11-07T10:41:34.141Z,2.25
2022-11-07T10:44:08.887Z,2.50
2022-11-07T10:46:50.124Z,2.10
2022-11-07T10:49:25.323Z,2.25
2022-11-07T10:51:57.882Z,2.20
2022-11-07T10:54:30.748Z,2.45
2022-11-07T10:57:13.161Z,2.60
2022-11-07T10:59:55.127Z,3.00
2022-11-07T11:02:31.291Z,2.80
2022-11-07T11:05:03.768Z,2.00
2022-11-07T11:07:37.265Z,2.95
2022-11-07T11:10:26.030Z,8.95
2022-11-07T11:12:56.662Z,7.22
2022-11-07T11:15:34.357Z,3.50
2022-11-07T11:18:03.423Z,2.20
2022-11-07T11:20:42.844Z,2.25
2022-11-07T11:23:22.222Z,2.15
2022-11-07T11:25:55.513Z,2.10
2022-11-07T11:28:29.124Z,2.33
2022-11-07T11:31:02.598Z,2.02
2022-11-07T11:33:44.244Z,1.90
2022-11-07T11:36:20.846Z,2.47
2022-11-07T11:38:54.646Z,2.10
2022-11-07T11:41:52.276Z,2.60
2022-11-07T11:44:28.397Z,1.80
2022-11-07T11:47:01.862Z,2.15
2022-11-07T11:49:35.308Z,2.10
2022-11-07T11:52:17.704Z,2.50
2022-11-07T11:54:51.116Z,3.40
2022-11-07T11:57:39.488Z,2.00
2022-11-07T12:00:20.231Z,1.82
2022-11-07T12:03:17.789Z,2.20
2022-11-07T12:06:06.485Z,1.98
2022-11-07T12:08:52.277Z,2.12
2022-11-07T12:11:43.296Z,2.00
2022-11-07T12:14:33.109Z,2.02
2022-11-07T12:17:21.436Z,2.00
2022-11-07T12:20:00.739Z,1.98
2022-11-07T12:22:34.107Z,2.40
2022-11-07T12:25:21.781Z,2.22
2022-11-07T12:28:00.955Z,2.30
2022-11-07T12:30:34.430Z,2.20
2022-11-07T12:33:24.549Z,2.45
2022-11-07T12:36:13.067Z,1.80
2022-11-07T12:38:52.332Z,2.00
2022-11-07T12:41:31.598Z,2.25
2022-11-07T12:44:10.974Z,1.77
2022-11-07T12:46:53.888Z,1.90
2022-11-07T12:49:27.396Z,2.02
2022-11-07T12:52:03.767Z,2.30
2022-11-07T12:54:49.334Z,2.40
2022-11-07T12:57:22.819Z,2.20
2022-11-07T12:59:56.396Z,1.95
2022-11-07T13:02:35.746Z,2.25
2022-11-07T13:05:25.658Z,2.30
2022-11-07T13:08:01.837Z,2.25
2022-11-07T13:10:38.017Z,2.20
2022-11-07T13:13:14.326Z,2.60
2022-11-07T13:16:14.145Z,4.53
2022-11-07T13:18:27.993Z,2.25
2022-11-07T13:21:07.321Z,2.65
2022-11-07T13:23:41.485Z,2.10
2022-11-07T13:26:44.594Z,2.52
2022-11-07T13:28:46.733Z,2.95
2022-11-07T13:31:38.508Z,2.30
2022-11-07T13:34:24.165Z,2.50
2022-11-07T13:36:57.645Z,2.72
2022-11-07T13:39:30.581Z,2.83
2022-11-07T13:42:01.429Z,2.62
2022-11-07T13:44:34.917Z,2.60
2022-11-07T13:47:08.595Z,2.60
2022-11-07T13:49:45.176Z,2.10
2022-11-07T13:52:27.651Z,2.25
2022-11-07T13:55:16.341Z,2.30
2022-11-07T13:57:55.829Z,2.33
2022-11-07T14:00:26.451Z,2.90
2022-11-07T14:02:59.695Z,2.80
2022-11-07T14:05:36.592Z,2.83
2022-11-07T14:08:15.325Z,2.30
2022-11-07T14:10:48.720Z,2.58
2022-11-07T14:13:27.920Z,2.45
2022-11-07T14:16:01.705Z,2.85
2022-11-07T14:18:43.959Z,2.58
2022-11-07T14:21:23.082Z,2.65
2022-11-07T14:23:53.456Z,2.83
2022-11-07T14:26:28.206Z,2.75
2022-11-07T14:29:00.596Z,2.50
2022-11-07T14:31:38.754Z,2.77
2022-11-07T14:34:17.841Z,4.67
2022-11-07T14:36:54.879Z,3.02
2022-11-07T14:39:27.477Z,2.83
2022-11-07T14:41:59.798Z,2.75
2022-11-07T14:47:08.441Z,2.20
2022-11-07T14:49:44.802Z,2.60
2022-11-07T14:52:18.310Z,2.60
2022-11-07T14:54:51.105Z,2.72
2022-11-07T14:57:22.117Z,4.20
2022-11-07T14:59:52.682Z,2.77
2022-11-07T15:02:28.977Z,2.50
2022-11-07T15:05:06.691Z,2.45
2022-11-07T15:07:35.959Z,2.90
2022-11-07T15:10:17.356Z,2.50
2022-11-07T15:12:56.290Z,2.52
2022-11-07T15:15:32.171Z,2.72
2022-11-07T15:18:05.428Z,2.55
2022-11-07T15:20:39.669Z,3.08
2022-11-07T15:23:21.889Z,2.22
2022-11-07T15:26:01.153Z,2.50
2022-11-07T15:28:33.980Z,2.37
2022-11-07T15:31:05.147Z,2.65
2022-11-07T15:33:35.728Z,2.40
2022-11-07T15:36:06.604Z,2.83
2022-11-07T15:38:37.056Z,4.12
2022-11-07T15:41:07.461Z,3.80
2022-11-07T15:43:38.041Z,3.58
2022-11-07T15:46:17.653Z,2.92
2022-11-07T15:48:48.199Z,2.87
2022-11-07T15:51:18.717Z,3.37
2022-11-07T15:53:49.120Z,2.42
2022-11-07T15:56:22.594Z,2.70
2022-11-07T15:58:54.514Z,2.60
2022-11-07T16:01:25.114Z,2.62
2022-11-07T16:03:55.555Z,2.62
2022-11-07T16:06:31.059Z,2.62
2022-11-07T16:09:01.599Z,2.35
2022-11-07T16:11:32.029Z,2.70
2022-11-07T16:14:35.128Z,2.65
2022-11-07T16:16:35.855Z,2.83
2022-11-07T16:19:06.802Z,2.72
2022-11-07T16:21:37.213Z,2.50
2022-11-07T16:24:07.822Z,2.70
2022-11-07T16:26:39.754Z,2.35
2022-11-07T16:29:11.981Z,2.42
2022-11-07T16:31:43.047Z,2.62
2022-11-07T16:34:13.956Z,2.70
2022-11-07T16:36:44.276Z,2.60
2022-11-07T16:39:23.081Z,2.52
2022-11-07T16:41:53.433Z,2.58
2022-11-07T16:44:26.349Z,2.90
2022-11-07T16:46:56.995Z,3.02
2022-11-07T16:49:33.932Z,2.33
2022-11-07T16:52:04.972Z,2.87
2022-11-07T16:54:35.368Z,2.95
2022-11-07T16:57:05.741Z,2.87
2022-11-07T16:59:36.132Z,2.65
2022-11-07T17:02:21.042Z,3.00
2022-11-07T17:04:51.940Z,2.90
2022-11-07T17:07:24.105Z,2.98
2022-11-07T17:09:54.510Z,2.80
2022-11-07T17:12:25.091Z,2.60
2022-11-07T17:14:55.892Z,2.67
2022-11-07T17:17:26.274Z,2.70
2022-11-07T17:19:56.673Z,2.75
2022-11-07T17:22:27.164Z,3.22
2022-11-07T17:24:57.543Z,3.20
2022-11-07T17:27:28.803Z,2.83
2022-11-07T17:30:00.417Z,3.17
2022-11-07T17:32:31.259Z,2.70
2022-11-07T17:35:29.987Z,2.70
2022-11-07T17:37:33.649Z,3.10
2022-11-07T17:40:04.419Z,2.90
2022-11-07T17:42:38.043Z,3.10
2022-11-07T17:45:07.905Z,3.08
2022-11-07T17:47:38.209Z,3.10
2022-11-07T17:50:10.079Z,2.90
2022-11-07T17:52:40.451Z,2.80
2022-11-07T17:55:11.009Z,4.75
2022-11-07T17:57:43.281Z,3.83
2022-11-07T18:00:19.844Z,2.85
2022-11-07T18:02:52.628Z,3.37
2022-11-07T18:05:30.144Z,3.12
2022-11-07T18:07:57.674Z,2.90
2022-11-07T18:10:29.389Z,3.20
2022-11-07T18:12:59.786Z,2.92
2022-11-07T18:15:30.191Z,5.60
2022-11-07T18:18:00.568Z,3.80
2022-11-07T18:20:31.240Z,3.20
2022-11-07T18:23:01.903Z,3.72
2022-11-07T18:25:32.318Z,3.42
2022-11-07T18:28:02.785Z,8.70
2022-11-07T18:30:33.720Z,3.30
2022-11-07T18:33:04.101Z,2.90
2022-11-07T18:35:34.545Z,4.10
2022-11-07T18:38:04.943Z,3.72
2022-11-07T18:40:35.418Z,3.25
2022-11-07T18:43:05.819Z,4.03
2022-11-07T18:45:37.312Z,3.17
2022-11-07T18:48:07.703Z,3.80
2022-11-07T18:50:40.057Z,3.83
2022-11-07T18:53:10.722Z,3.75
2022-11-07T18:55:41.448Z,3.60
2022-11-07T18:58:11.852Z,3.70
2022-11-07T19:00:43.912Z,3.55
2022-11-07T19:03:14.447Z,3.30
2022-11-07T19:05:45.009Z,3.20
2022-11-07T19:08:15.733Z,2.92
2022-11-07T19:10:46.507Z,3.30
2022-11-07T19:13:16.852Z,3.20
2022-11-07T19:15:49.671Z,3.40
2022-11-07T19:18:21.024Z,3.27
2022-11-07T19:20:55.581Z,3.20
2022-11-07T19:23:25.965Z,3.45
2022-11-07T19:25:56.752Z,3.15
2022-11-07T19:28:27.165Z,3.50
2022-11-07T19:30:57.874Z,3.42
2022-11-07T19:33:28.269Z,3.20
2022-11-07T19:36:00.530Z,3.20
2022-11-07T19:38:31.241Z,3.30
2022-11-07T19:41:06.901Z,3.33
2022-11-07T19:43:37.875Z,3.12
2022-11-07T19:46:10.942Z,3.50
2022-11-07T19:48:41.361Z,3.33
2022-11-07T19:51:21.594Z,3.20
2022-11-07T19:54:00.681Z,3.75
2022-11-07T19:56:32.773Z,3.20
2022-11-07T19:59:03.401Z,6.17
2022-11-07T20:01:35.653Z,3.95
2022-11-07T20:04:08.118Z,3.52
2022-11-07T20:06:40.006Z,4.00
2022-11-07T20:09:12.323Z,3.00
2022-11-07T20:11:42.954Z,3.30
2022-11-07T20:14:13.608Z,3.67
2022-11-07T20:16:44.205Z,3.83
2022-11-07T20:19:14.562Z,3.10
2022-11-07T20:21:44.894Z,3.10
2022-11-07T20:24:15.301Z,3.10
2022-11-07T20:26:45.890Z,3.42
2022-11-07T20:29:18.009Z,3.62
2022-11-07T20:31:48.388Z,2.72
2022-11-07T20:34:20.716Z,3.25
2022-11-07T20:36:52.728Z,3.30
2022-11-07T20:39:23.188Z,2.92
2022-11-07T20:41:53.983Z,3.67
2022-11-07T20:44:24.351Z,3.20
2022-11-07T20:46:56.493Z,3.42
2022-11-07T20:49:26.859Z,3.00
2022-11-07T20:51:58.119Z,2.95
2022-11-07T20:54:29.809Z,3.10
2022-11-07T20:57:00.467Z,3.20
2022-11-07T20:59:32.924Z,3.02
2022-11-07T21:02:04.169Z,2.85
2022-11-07T21:04:49.888Z,2.98
2022-11-07T21:07:07.275Z,3.05
2022-11-07T21:09:37.717Z,3.83
2022-11-07T21:12:08.226Z,3.22
2022-11-07T21:14:39.485Z,2.90
2022-11-07T21:17:09.992Z,2.67
2022-11-07T21:19:40.479Z,3.40
2022-11-07T21:22:10.880Z,2.83
2022-11-07T21:24:41.265Z,3.10
2022-11-07T21:27:11.669Z,5.53
2022-11-07T21:29:42.064Z,3.00
2022-11-07T21:32:12.476Z,3.25
2022-11-07T21:34:44.478Z,2.87
2022-11-07T21:37:14.875Z,2.92
2022-11-07T21:39:45.298Z,2.70
2022-11-07T21:42:15.821Z,3.25
2022-11-07T21:44:46.226Z,2.67
2022-11-07T21:47:16.540Z,3.33
2022-11-07T21:49:52.139Z,2.98
2022-11-07T21:52:22.693Z,2.95
2022-11-07T21:54:53.117Z,2.90
2022-11-07T21:57:23.542Z,2.80
2022-11-07T21:59:54.002Z,2.75
2022-11-07T22:02:24.544Z,2.83
2022-11-07T22:04:54.887Z,2.75
2022-11-07T22:07:25.225Z,5.53
2022-11-07T22:09:55.756Z,3.30
2022-11-07T22:12:26.096Z,2.70
2022-11-07T22:14:56.364Z,2.55
2022-11-07T22:17:26.992Z,3.20
2022-11-07T22:19:57.496Z,3.20
2022-11-07T22:22:27.875Z,2.55
2022-11-07T22:24:58.253Z,2.90
2022-11-07T22:27:28.656Z,2.90
2022-11-07T22:29:59.084Z,2.70
2022-11-07T22:32:29.529Z,3.22
2022-11-07T22:35:02.535Z,2.95
2022-11-07T22:37:31.940Z,2.87
2022-11-07T22:40:02.330Z,2.83
2022-11-07T22:42:33.490Z,2.83
2022-11-07T22:45:04.357Z,2.90
2022-11-07T22:47:34.710Z,3.35
2022-11-07T22:50:05.492Z,2.80
2022-11-07T22:52:35.892Z,2.85
2022-11-07T22:55:07.059Z,2.90
2022-11-07T22:57:37.735Z,2.65
2022-11-07T23:00:20.996Z,2.70
2022-11-07T23:02:41.305Z,2.70
2022-11-07T23:05:12.060Z,3.27
2022-11-07T23:07:42.454Z,3.02
2022-11-07T23:10:12.898Z,2.75
2022-11-07T23:12:43.213Z,3.65
2022-11-07T23:15:13.909Z,2.83
2022-11-07T23:17:44.477Z,2.67
2022-11-07T23:20:16.599Z,2.92
2022-11-07T23:22:47.056Z,2.50
2022-11-07T23:25:17.526Z,2.87
2022-11-07T23:27:47.903Z,3.25
2022-11-07T23:30:18.343Z,2.77
2022-11-07T23:32:48.674Z,3.12
2022-11-07T23:35:19.051Z,3.12
2022-11-07T23:37:50.644Z,3.02
2022-11-07T23:40:21.028Z,3.33
2022-11-07T23:42:51.405Z,3.17
2022-11-07T23:45:39.923Z,2.95
2022-11-07T23:48:31.431Z,2.63
2022-11-07T23:51:07.117Z,2.80
2022-11-07T23:53:56.654Z,2.92
2022-11-07T23:56:28.788Z,2.92
2022-11-07T23:59:17.001Z,2.80
